createdAt,value
2019-03-20T09:44:33.068Z,102755.25
2019-03-20T09:47:16.099Z,102749.96
2019-03-20T09:49:51.665Z,102744.28
2019-03-20T09:52:25.607Z,102739.42
2019-03-20T09:55:00.361Z,102730.50
2019-03-20T09:57:48.414Z,102742.74
2019-03-20T10:00:28.695Z,102740.92
2019-03-20T10:03:07.342Z,102733.92
2019-03-20T10:05:42.221Z,102729.23
2019-03-20T10:08:17.827Z,102725.33
2019-03-20T10:10:55.696Z,102731.46
2019-03-20T10:13:47.515Z,102731.78
2019-03-20T10:16:35.383Z,102734.52
2019-03-20T10:19:13.739Z,102732.34
2019-03-20T10:21:49.063Z,102731.05
2019-03-20T10:24:26.456Z,102729.33
2019-03-20T10:27:02.230Z,102728.81
2019-03-20T10:40:40.807Z,102730.11
2019-03-20T10:43:18.248Z,102729.69
2019-03-20T10:45:58.609Z,102734.13
2019-03-20T10:48:37.243Z,102733.73
2019-03-20T10:51:12.764Z,102731.98
2019-03-20T10:53:47.158Z,102733.33
2019-03-20T10:56:23.097Z,102730.12
2019-03-20T10:58:59.765Z,102732.77
2019-03-20T11:01:42.541Z,102735.92
2019-03-20T11:04:19.329Z,102718.77
2019-03-20T11:07:47.430Z,102717.87
2019-03-20T11:13:41.597Z,102718.73
2019-03-20T11:23:05.493Z,102722.73
2019-03-20T11:30:42.675Z,102703.29
2019-03-20T11:50:33.325Z,102696.31
2019-03-20T11:53:16.858Z,102692.33
2019-03-20T11:56:00.843Z,102688.34
2019-03-20T11:58:41.383Z,102685.70
2019-03-20T12:01:18.516Z,102689.20
2019-03-20T12:03:56.698Z,102690.55
2019-03-20T12:06:37.982Z,102685.72
2019-03-20T12:09:21.208Z,102691.01
2019-03-20T12:12:07.159Z,102681.77
2019-03-20T12:15:00.158Z,102680.45
2019-03-20T12:17:59.911Z,102690.56
2019-03-20T12:20:34.893Z,102676.04
2019-03-20T12:23:09.503Z,102666.29
2019-03-20T12:25:43.666Z,102660.97
2019-03-20T12:28:36.156Z,102657.44
2019-03-20T12:31:09.847Z,102652.16
2019-03-20T12:33:43.221Z,102652.59
2019-03-20T12:36:16.976Z,102660.08
2019-03-20T12:38:50.326Z,102663.64
2019-03-20T12:41:24.941Z,102655.27
2019-03-20T12:43:58.297Z,102657.44
2019-03-20T12:46:41.343Z,102650.83
2019-03-20T12:49:07.167Z,102653.92
2019-03-20T12:51:44.134Z,102649.50
2019-03-20T12:54:18.788Z,102645.53
2019-03-20T12:56:53.836Z,102635.39
2019-03-20T12:59:27.919Z,102645.50
2019-03-20T13:02:01.196Z,102653.00
2019-03-20T13:04:36.213Z,102650.83
2019-03-20T13:07:09.413Z,102621.28
2019-03-20T13:09:42.648Z,102629.20
2019-03-20T13:12:15.988Z,102642.42
2019-03-20T13:14:49.210Z,102638.02
2019-03-20T13:17:22.683Z,102634.91
2019-03-20T13:19:56.120Z,102633.60
2019-03-20T13:22:29.295Z,102625.23
2019-03-20T13:25:02.493Z,102617.32
2019-03-20T13:27:35.780Z,102619.04
2019-03-20T13:30:20.878Z,102614.62
2019-03-20T13:32:54.249Z,102613.79
2019-03-20T13:35:27.561Z,102611.16
2019-03-20T13:38:02.168Z,102608.95
2019-03-20T13:40:35.534Z,102608.98
2019-03-20T13:43:09.109Z,102601.94
2019-03-20T13:45:42.669Z,102606.77
2019-03-20T13:48:16.213Z,102588.30
2019-03-20T13:51:03.209Z,102597.06
2019-03-20T13:53:38.342Z,102589.16
2019-03-20T13:56:12.026Z,102589.15
2019-03-20T13:58:46.873Z,102583.88
2019-03-20T14:01:20.188Z,102579.48
2019-03-20T14:03:56.986Z,102585.20
2019-03-20T14:06:32.484Z,102584.78
2019-03-20T14:09:08.886Z,102589.18
2019-03-20T14:11:42.435Z,102587.84
2019-03-20T14:14:15.986Z,102589.19
2019-03-20T14:16:50.809Z,102594.48
2019-03-20T14:19:24.319Z,102590.49
2019-03-20T14:21:57.797Z,102581.23
2019-03-20T14:24:31.642Z,102579.92
2019-03-20T14:27:05.034Z,102579.48
2019-03-20T14:29:39.653Z,102568.45
2019-03-20T14:32:13.240Z,102575.53
2019-03-20T14:34:46.780Z,102569.36
2019-03-20T14:37:20.185Z,102571.55
2019-03-20T14:39:53.919Z,102568.02
2019-03-20T14:42:27.343Z,102567.12
2019-03-20T14:45:01.378Z,102566.69
2019-03-20T14:47:42.159Z,102577.71
2019-03-20T14:50:14.211Z,102571.55
2019-03-20T14:52:47.727Z,102572.81
2019-03-20T14:55:21.214Z,102575.44
2019-03-20T14:57:54.688Z,102575.42
2019-03-20T15:00:29.959Z,102576.29
2019-03-20T15:03:04.778Z,102578.05
2019-03-20T15:05:37.847Z,102581.14
2019-03-20T15:08:10.835Z,102586.41
2019-03-20T15:10:46.413Z,102571.82
2019-03-20T15:13:19.968Z,102575.77
2019-03-20T15:16:03.930Z,102558.13
2019-03-20T15:18:37.464Z,102584.97
2019-03-20T15:21:11.009Z,102588.02
2019-03-20T15:23:44.972Z,102587.13
2019-03-20T15:26:19.359Z,102595.47
2019-03-20T15:28:52.830Z,102593.70
2019-03-20T15:31:26.339Z,102588.84
2019-03-20T15:33:59.874Z,102584.91
2019-03-20T15:36:34.256Z,102589.27
2019-03-20T15:39:10.409Z,102588.80
2019-03-20T15:41:44.030Z,102586.59
2019-03-20T15:44:17.549Z,102587.02
2019-03-20T15:46:51.239Z,102590.49
2019-03-20T15:49:24.849Z,102580.79
2019-03-20T15:51:59.196Z,102574.62
2019-03-20T15:54:36.861Z,102567.17
2019-03-20T15:57:11.443Z,102560.09
2019-03-20T15:59:44.973Z,102547.28
2019-03-20T16:02:18.816Z,102541.09
2019-03-20T16:04:52.361Z,102534.50
2019-03-20T16:07:26.138Z,102531.37
2019-03-20T16:10:00.375Z,102531.81
2019-03-20T16:12:34.061Z,102528.28
2019-03-20T16:15:10.021Z,102529.56
2019-03-20T16:17:44.194Z,102522.95
2019-03-20T16:20:18.503Z,102495.53
2019-03-20T16:22:52.585Z,102529.06
2019-03-20T16:25:26.136Z,102504.78
2019-03-20T16:27:59.705Z,102536.97
2019-03-20T16:30:33.539Z,102534.28
2019-03-20T16:33:07.245Z,102524.13
2019-03-20T16:35:41.719Z,102529.34
2019-03-20T16:38:17.710Z,102536.35
2019-03-20T16:40:51.340Z,102537.62
2019-03-20T16:43:25.018Z,102545.89
2019-03-20T16:45:59.746Z,102554.67
2019-03-20T16:48:33.568Z,102558.99
2019-03-20T16:51:08.200Z,102551.45
2019-03-20T16:53:41.856Z,102554.93
2019-03-20T16:56:17.409Z,102561.88
2019-03-20T16:58:52.347Z,102571.94
2019-03-20T17:01:26.763Z,102577.10
2019-03-20T17:04:01.046Z,102576.20
2019-03-20T17:06:38.038Z,102577.91
2019-03-20T17:09:12.757Z,102579.11
2019-03-20T17:11:49.871Z,102586.98
2019-03-20T17:14:37.363Z,102585.13
2019-03-20T17:17:34.293Z,102589.92
2019-03-20T17:20:11.906Z,102579.25
2019-03-20T17:22:51.196Z,102602.08
2019-03-20T17:25:30.358Z,102610.33
2019-03-20T17:28:17.421Z,102608.08
2019-03-20T17:31:17.771Z,102608.88
2019-03-20T17:33:54.869Z,102615.52
2019-03-20T17:36:35.691Z,102615.94
2019-03-20T17:39:14.111Z,102611.95
2019-03-20T17:42:14.706Z,102618.97
2019-03-20T17:45:11.870Z,102624.13
2019-03-20T17:48:22.495Z,102626.77
2019-03-20T18:03:09.098Z,102610.18
2019-03-20T18:05:46.036Z,102599.56
2019-03-20T18:08:19.990Z,102596.69
2019-03-20T18:10:54.000Z,102591.36
2019-03-20T18:13:28.567Z,102600.16
2019-03-20T18:16:02.969Z,102602.34
2019-03-20T18:18:44.772Z,102594.45
2019-03-20T18:21:21.642Z,102597.92
2019-03-20T19:21:28.041Z,102608.42
2019-03-20T19:24:08.357Z,102606.63
2019-03-20T19:26:50.323Z,102608.81
2019-03-20T19:29:49.336Z,102611.39
2019-03-20T19:36:25.297Z,102611.22
2019-03-20T19:46:13.150Z,102607.06
2019-03-20T19:49:00.738Z,102601.77
2019-03-20T19:51:50.023Z,102593.89
2019-03-20T19:54:29.768Z,102596.88
2019-03-20T19:57:10.311Z,102599.05
2019-03-20T20:00:08.894Z,102599.88
2019-03-20T20:03:10.551Z,102594.16
2019-03-20T20:06:02.134Z,102595.91
2019-03-20T20:09:04.584Z,102602.91
2019-03-20T20:12:11.439Z,102606.45
2019-03-20T20:15:26.983Z,102612.09
2019-03-20T20:21:26.779Z,102609.08
2019-03-20T20:24:11.280Z,102609.56
2019-03-20T20:26:49.578Z,102614.41
2019-03-20T20:29:30.853Z,102614.90
2019-03-20T20:32:39.698Z,102615.41
2019-03-20T20:43:24.164Z,102612.97
2019-03-20T20:46:08.631Z,102617.79
2019-03-20T20:49:02.324Z,102623.12
2019-03-20T20:51:39.269Z,102639.80
2019-03-20T20:54:37.937Z,102640.28
2019-03-20T20:57:14.501Z,102643.78
2019-03-20T20:59:53.629Z,102644.70
2019-03-20T21:02:32.218Z,102649.99
2019-03-20T21:05:20.697Z,102660.49
2019-03-20T21:07:58.815Z,102661.81
2019-03-20T21:10:34.272Z,102660.09
2019-03-20T21:13:09.513Z,102656.17
2019-03-20T21:15:51.468Z,102654.89
2019-03-20T23:10:14.971Z,102632.13
2019-03-20T23:12:52.703Z,102633.93
2019-03-20T23:15:28.659Z,102632.62
2019-03-20T23:18:04.243Z,102629.99
2019-03-20T23:20:38.757Z,102636.59
2019-03-20T23:23:13.992Z,102631.27
2019-03-20T23:25:48.383Z,102624.70
2019-03-20T23:28:23.477Z,102622.95
2019-03-20T23:30:57.967Z,102620.76
2019-03-20T23:33:32.922Z,102622.03
2019-03-20T23:36:08.378Z,102630.39
2019-03-20T23:38:44.034Z,102632.05
2019-03-20T23:41:19.079Z,102633.41
2019-03-20T23:43:54.399Z,102637.73
2019-03-20T23:46:29.944Z,102638.66
2019-03-20T23:49:24.798Z,102639.93
2019-03-20T23:51:59.567Z,102638.61
2019-03-20T23:54:47.946Z,102638.53
2019-03-20T23:57:22.911Z,102636.33
